Time;durP1;ratioP1;P1;durP2;ratioP2;P2;SDS_P1;SDS_P2;PMS_P1;PMS_P2;Temp;Humidity;BMP_temperature;BMP_pressure;BME280_temperature;BME280_humidity;BME280_pressure;Samples;Min_cycle;Max_cycle;Signal;HPM_P1;HPM_P2
2022/04/02 00:01:30;;;;;;;17.70;11.50;;;;;;;-0.92;79.80;97193.60;108002;1277;23182;-82
2022/04/02 00:03:57;;;;;;;18.80;11.50;;;;;;;-0.90;79.53;97195.40;107998;1277;22599;-74
2022/04/02 00:06:24;;;;;;;22.70;13.90;;;;;;;-0.87;79.67;97192.86;108047;1277;22582;-73
2022/04/02 00:08:51;;;;;;;20.00;13.10;;;;;;;-0.87;80.03;97192.35;108046;1277;22580;-73
2022/04/02 00:11:18;;;;;;;17.30;11.10;;;;;;;-0.86;80.41;97189.23;108101;1277;22602;-72
2022/04/02 00:13:45;;;;;;;24.70;12.10;;;;;;;-0.84;80.47;97192.05;108054;1277;22560;-75
2022/04/02 00:16:13;;;;;;;20.90;12.30;;;;;;;-0.85;80.31;97192.80;107998;1277;22537;-70
2022/04/02 00:18:42;;;;;;;23.00;12.40;;;;;;;-0.89;80.11;97191.23;108001;1277;22575;-80
2022/04/02 00:21:09;;;;;;;24.50;12.00;;;;;;;-0.91;80.06;97195.27;108044;1277;24269;-72
2022/04/02 00:23:39;;;;;;;25.20;12.60;;;;;;;-0.96;79.93;97198.88;108071;1277;25530;-78
2022/04/02 00:26:09;;;;;;;26.40;11.80;;;;;;;-0.96;79.78;97196.50;108040;1277;22567;-71
2022/04/02 00:28:37;;;;;;;16.20;10.40;;;;;;;-0.97;79.76;97202.01;108017;1277;22724;-75
2022/04/02 00:31:05;;;;;;;19.20;13.00;;;;;;;-0.94;79.93;97199.83;108195;1277;22548;-74
2022/04/02 00:33:32;;;;;;;20.20;11.70;;;;;;;-0.91;80.29;97198.16;107960;1279;22644;-71
2022/04/02 00:35:59;;;;;;;20.20;12.20;;;;;;;-0.87;80.48;97198.00;108070;1277;22647;-74
2022/04/02 00:38:26;;;;;;;19.10;10.90;;;;;;;-0.91;80.55;97201.95;108063;1277;22538;-71
2022/04/02 00:40:53;;;;;;;16.10;10.70;;;;;;;-0.91;80.64;97199.88;108071;1277;22541;-70
2022/04/02 00:43:32;;;;;;;14.30;9.80;;;;;;;-0.88;80.54;97203.52;108034;1277;22535;-73
2022/04/02 00:46:04;;;;;;;14.00;9.70;;;;;;;-0.93;80.27;97203.55;108039;1277;22626;-73
2022/04/02 00:48:32;;;;;;;18.50;11.40;;;;;;;-0.96;80.13;97204.17;108166;1275;24425;-76
2022/04/02 00:51:01;;;;;;;18.90;11.40;;;;;;;-0.95;79.80;97203.64;108092;1277;22550;-79
2022/04/02 00:53:33;;;;;;;23.60;12.60;;;;;;;-0.98;79.95;97204.45;108045;1277;22750;-76
2022/04/02 00:56:00;;;;;;;19.80;13.10;;;;;;;-0.94;79.81;97206.14;108057;1277;22620;-75
2022/04/02 00:58:27;;;;;;;21.00;12.20;;;;;;;-0.93;80.15;97208.15;108061;1277;22549;-70
2022/04/02 01:00:54;;;;;;;18.30;12.60;;;;;;;-0.88;80.58;97206.59;108066;1277;22545;-74
2022/04/02 01:03:21;;;;;;;16.70;10.70;;;;;;;-0.90;80.71;97205.99;108068;1277;22539;-70
2022/04/02 01:05:49;;;;;;;17.10;10.00;;;;;;;-0.88;80.74;97207.45;108100;1277;22574;-77
2022/04/02 01:08:17;;;;;;;14.30;10.30;;;;;;;-0.94;80.44;97207.17;108441;1277;22538;-71
2022/04/02 01:10:45;;;;;;;14.30;8.70;;;;;;;-0.97;80.46;97206.43;108063;1277;24331;-71
2022/04/02 01:13:14;;;;;;;17.40;10.20;;;;;;;-0.99;80.23;97208.94;108045;1277;22591;-76
2022/04/02 01:15:42;;;;;;;15.30;9.80;;;;;;;-1.01;80.16;97211.25;108030;1277;26671;-78
2022/04/02 01:18:09;;;;;;;16.30;10.70;;;;;;;-1.03;80.30;97208.27;108078;1277;22557;-70
2022/04/02 01:20:37;;;;;;;19.40;12.80;;;;;;;-1.00;80.20;97210.33;108079;1277;22582;-71
2022/04/02 01:23:04;;;;;;;19.10;12.00;;;;;;;-0.96;80.41;97209.64;108034;1277;22557;-71
2022/04/02 01:25:32;;;;;;;16.60;11.90;;;;;;;-0.97;80.59;97210.55;108072;1277;22559;-69
2022/04/02 01:28:00;;;;;;;19.50;11.70;;;;;;;-0.97;80.93;97207.48;108121;1277;24050;-71
2022/04/02 01:30:29;;;;;;;17.70;11.00;;;;;;;-0.98;80.85;97207.70;108343;1277;24230;-71
2022/04/02 01:32:56;;;;;;;16.00;10.70;;;;;;;-0.97;80.61;97205.59;108272;1277;22534;-81
2022/04/02 01:35:24;;;;;;;15.00;8.90;;;;;;;-0.98;80.28;97202.36;108307;1277;22619;-71
2022/04/02 01:37:52;;;;;;;17.10;10.50;;;;;;;-0.98;79.99;97203.23;108287;1277;22736;-75
2022/04/02 01:40:19;;;;;;;14.50;9.20;;;;;;;-1.03;80.11;97204.15;108293;1277;22631;-74
2022/04/02 01:42:47;;;;;;;19.70;11.60;;;;;;;-1.03;79.87;97210.66;108284;1277;25278;-80
2022/04/02 01:45:15;;;;;;;20.60;14.10;;;;;;;-1.03;80.11;97212.16;108327;1277;22571;-74
2022/04/02 01:47:43;;;;;;;18.20;12.10;;;;;;;-0.97;80.36;97215.69;108390;1277;22585;-75
2022/04/02 01:50:13;;;;;;;15.70;10.40;;;;;;;-0.97;80.67;97219.77;108365;1277;22561;-80
2022/04/02 01:52:40;;;;;;;19.00;12.30;;;;;;;-0.96;80.99;97220.61;108320;1277;22577;-85
2022/04/02 01:55:07;;;;;;;16.10;11.30;;;;;;;-0.98;80.74;97218.25;108322;1276;22568;-81
2022/04/02 01:57:36;;;;;;;17.60;11.10;;;;;;;-0.98;80.58;97221.53;108170;1277;242300;-78
2022/04/02 02:00:05;;;;;;;14.40;10.20;;;;;;;-1.02;80.47;97218.63;108340;1277;22540;-79
2022/04/02 02:02:32;;;;;;;13.10;8.80;;;;;;;-1.05;80.58;97218.07;108360;1277;25265;-73
2022/04/02 02:05:00;;;;;;;18.30;12.20;;;;;;;-1.01;80.16;97221.00;108267;1277;22556;-82
2022/04/02 02:07:27;;;;;;;20.20;13.80;;;;;;;-1.02;80.41;97219.83;108334;1277;22557;-84
2022/04/02 02:09:57;;;;;;;17.90;11.20;;;;;;;-0.99;80.78;97220.23;108385;1277;22537;-87
2022/04/02 02:12:25;;;;;;;17.30;11.10;;;;;;;-0.98;81.18;97222.22;108341;1277;25349;-77
2022/04/02 02:14:52;;;;;;;17.40;11.20;;;;;;;-1.01;81.35;97224.07;108204;1277;22638;-73
2022/04/02 02:17:19;;;;;;;15.80;11.00;;;;;;;-1.05;81.27;97229.17;108030;1277;22556;-74
2022/04/02 02:19:46;;;;;;;22.80;11.80;;;;;;;-1.05;80.97;97225.25;108072;1277;22540;-75
2022/04/02 02:22:13;;;;;;;16.30;10.30;;;;;;;-1.08;80.90;97229.50;108089;1277;22556;-73
2022/04/02 02:24:40;;;;;;;18.60;10.00;;;;;;;-1.09;80.81;97230.73;108057;1277;22537;-73
2022/04/02 02:27:08;;;;;;;18.00;10.90;;;;;;;-1.08;80.72;97232.21;108036;1277;23969;-72
2022/04/02 02:29:35;;;;;;;22.60;13.20;;;;;;;-1.04;80.58;97234.25;108061;1277;22599;-75
2022/04/02 02:32:03;;;;;;;21.40;13.10;;;;;;;-1.02;80.87;97231.45;108022;1277;22572;-75
2022/04/02 02:37:16;;;;;;;14.30;9.10;;;;;;;-0.98;81.25;97233.83;108063;1278;22587;-73
2022/04/02 02:39:43;;;;;;;15.60;10.80;;;;;;;-1.08;81.03;97232.57;108010;1277;24326;-77
2022/04/02 02:42:11;;;;;;;16.70;10.60;;;;;;;-1.11;80.92;97232.50;108001;1277;22555;-74
2022/04/02 02:44:38;;;;;;;14.80;11.00;;;;;;;-1.15;80.97;97238.09;108013;1277;22558;-71
2022/04/02 02:47:06;;;;;;;20.00;12.70;;;;;;;-1.13;80.76;97239.05;108043;1277;25353;-72
2022/04/02 02:49:33;;;;;;;21.60;14.10;;;;;;;-1.06;80.83;97241.20;108064;1277;22581;-75
2022/04/02 02:52:00;;;;;;;20.70;13.40;;;;;;;-1.03;81.10;97244.66;108049;1277;22566;-72
2022/04/02 02:54:27;;;;;;;22.60;12.70;;;;;;;-1.06;81.39;97247.16;108026;1278;22537;-74
2022/04/02 02:56:54;;;;;;;17.70;10.40;;;;;;;-1.06;81.79;97248.17;108026;1277;22816;-77
2022/04/02 02:59:21;;;;;;;17.60;11.80;;;;;;;-1.03;81.69;97247.90;108014;1277;26664;-75
2022/04/02 03:01:48;;;;;;;18.10;11.00;;;;;;;-1.08;81.48;97246.23;108045;1277;22553;-72
2022/04/02 03:04:18;;;;;;;15.20;11.00;;;;;;;-1.11;81.21;97244.63;108029;1277;22536;-77
2022/04/02 03:06:45;;;;;;;16.00;10.40;;;;;;;-1.15;81.21;97244.45;108013;1277;23444;-78
2022/04/02 03:09:12;;;;;;;18.50;12.90;;;;;;;-1.14;80.92;97248.14;108040;1277;22538;-78
2022/04/02 03:11:39;;;;;;;20.80;13.90;;;;;;;-1.11;80.94;97248.23;108047;1277;22547;-76
2022/04/02 03:14:06;;;;;;;19.20;12.80;;;;;;;-1.08;81.06;97247.27;108012;1277;22601;-76
2022/04/02 03:16:33;;;;;;;20.10;12.50;;;;;;;-1.04;81.68;97247.75;108009;1277;22568;-73
2022/04/02 03:19:02;;;;;;;17.80;11.70;;;;;;;-1.04;81.82;97247.77;108019;1277;22537;-72
2022/04/02 03:21:29;;;;;;;18.40;11.40;;;;;;;-1.04;81.71;97247.41;108027;1277;22716;-73
2022/04/02 03:23:56;;;;;;;17.90;13.20;;;;;;;-1.08;81.38;97246.73;108002;1277;22554;-73
2022/04/02 03:26:27;;;;;;;35.50;17.10;;;;;;;-1.13;81.39;97246.75;108041;1277;22563;-77
2022/04/02 03:28:54;;;;;;;31.10;16.20;;;;;;;-1.14;80.97;97248.31;108065;1277;22538;-74
2022/04/02 03:31:22;;;;;;;23.00;13.90;;;;;;;-1.14;80.91;97247.98;108041;1277;22559;-76
2022/04/02 03:33:50;;;;;;;28.70;16.10;;;;;;;-1.10;80.88;97247.50;107997;1277;22551;-72
2022/04/02 03:36:17;;;;;;;18.90;13.20;;;;;;;-1.06;81.15;97243.90;108005;1277;22574;-72
2022/04/02 03:38:44;;;;;;;19.80;13.60;;;;;;;-1.03;81.45;97244.48;108020;1277;22646;-72
2022/04/02 03:41:13;;;;;;;20.80;13.50;;;;;;;-1.06;81.58;97252.81;107994;1277;23446;-75
2022/04/02 03:43:40;;;;;;;17.50;11.80;;;;;;;-1.11;81.59;97248.73;108018;1277;23096;-73
2022/04/02 03:48:53;;;;;;;19.70;12.50;;;;;;;-1.17;81.29;97252.23;108042;1277;22534;-74
2022/04/02 03:51:21;;;;;;;15.80;10.50;;;;;;;-1.17;81.04;97253.55;108018;1277;22549;-74
2022/04/02 03:53:48;;;;;;;20.70;12.10;;;;;;;-1.19;80.87;97254.86;108018;1277;22553;-73
2022/04/02 03:56:15;;;;;;;23.20;14.40;;;;;;;-1.18;81.10;97257.23;108003;1277;25272;-73
2022/04/02 03:58:42;;;;;;;22.00;14.90;;;;;;;-1.15;81.37;97252.13;107994;1277;22557;-74
2022/04/02 04:01:09;;;;;;;25.40;13.60;;;;;;;-1.12;81.63;97254.77;108026;1277;22525;-78
2022/04/02 04:03:36;;;;;;;18.50;12.20;;;;;;;-1.14;82.03;97259.23;108022;1277;23275;-73
2022/04/02 04:06:03;;;;;;;20.00;12.60;;;;;;;-1.17;81.87;97261.60;108007;1277;24292;-73
2022/04/02 04:08:30;;;;;;;22.90;14.20;;;;;;;-1.18;81.66;97265.95;107987;1277;22571;-77
2022/04/02 04:10:57;;;;;;;19.40;12.00;;;;;;;-1.19;81.54;97264.76;108020;1277;22541;-75
2022/04/02 04:13:24;;;;;;;21.50;11.80;;;;;;;-1.18;81.19;97268.66;108177;1277;22792;-73
2022/04/02 04:15:51;;;;;;;16.70;10.70;;;;;;;-1.20;81.19;97269.93;108102;1277;24444;-77
2022/04/02 04:18:18;;;;;;;22.10;13.00;;;;;;;-1.20;80.97;97273.01;108017;1277;22537;-71
2022/04/02 04:20:45;;;;;;;20.90;13.30;;;;;;;-1.19;81.07;97273.65;108028;1277;22544;-76
2022/04/02 04:23:12;;;;;;;19.50;11.50;;;;;;;-1.17;81.34;97275.08;108006;1277;25443;-71
2022/04/02 04:25:39;;;;;;;20.10;13.20;;;;;;;-1.18;81.59;97279.42;108028;1277;24330;-72
2022/04/02 04:28:07;;;;;;;18.20;11.90;;;;;;;-1.21;81.72;97281.41;108012;1277;22574;-73
2022/04/02 04:30:34;;;;;;;18.00;11.00;;;;;;;-1.20;81.89;97282.58;107998;1277;24425;-71
2022/04/02 04:33:02;;;;;;;17.40;12.00;;;;;;;-1.22;81.66;97280.44;107998;1277;23371;-75
2022/04/02 04:35:29;;;;;;;16.20;11.30;;;;;;;-1.20;81.33;97279.48;107999;1277;22815;-73
2022/04/02 04:37:56;;;;;;;14.60;9.00;;;;;;;-1.21;81.23;97282.92;108061;1277;22569;-73
2022/04/02 04:40:24;;;;;;;20.10;11.10;;;;;;;-1.18;80.87;97283.00;108042;1277;22585;-79
2022/04/02 04:42:51;;;;;;;19.80;12.90;;;;;;;-1.24;80.96;97289.21;108035;1277;22562;-73
2022/04/02 04:45:18;;;;;;;21.70;13.50;;;;;;;-1.20;81.12;97285.48;108026;1277;26785;-73
2022/04/02 04:47:48;;;;;;;19.00;12.70;;;;;;;-1.14;81.31;97291.73;108040;1277;22546;-70
2022/04/02 04:50:16;;;;;;;18.60;11.40;;;;;;;-1.10;81.63;97292.27;107983;1277;22553;-74
2022/04/02 04:52:43;;;;;;;16.00;10.50;;;;;;;-1.10;81.86;97289.19;108033;1277;22551;-76
2022/04/02 04:55:10;;;;;;;21.10;11.80;;;;;;;-1.15;81.64;97297.05;108022;1277;22609;-74
2022/04/02 04:57:37;;;;;;;16.30;11.30;;;;;;;-1.17;81.36;97297.84;108027;1278;22677;-78
2022/04/02 05:00:05;;;;;;;15.40;9.80;;;;;;;-1.20;81.14;97299.80;108034;1277;22542;-78
2022/04/02 05:02:32;;;;;;;16.80;11.00;;;;;;;-1.24;81.11;97300.30;108107;1278;22531;-73
2022/04/02 05:04:59;;;;;;;19.60;11.90;;;;;;;-1.25;81.07;97301.73;108004;1277;22554;-76
2022/04/02 05:07:35;;;;;;;21.40;12.00;;;;;;;-1.25;81.23;97302.73;108039;1277;22676;-77
2022/04/02 05:10:10;;;;;;;21.90;11.50;;;;;;;-1.21;81.31;97304.45;108015;1277;25284;-74
2022/04/02 05:12:38;;;;;;;18.80;12.40;;;;;;;-1.18;81.56;97300.09;108008;1277;24439;-73
2022/04/02 05:15:09;;;;;;;22.40;13.00;;;;;;;-1.20;81.94;97303.91;108046;1278;22562;-75
2022/04/02 05:17:37;;;;;;;17.80;10.60;;;;;;;-1.19;82.04;97303.52;108020;1276;22585;-81
2022/04/02 05:20:12;;;;;;;18.50;11.10;;;;;;;-1.20;81.71;97305.96;108186;1277;22564;-72
2022/04/02 05:22:40;;;;;;;27.50;13.20;;;;;;;-1.21;81.59;97311.31;108025;1278;22716;-72
2022/04/02 05:25:08;;;;;;;20.60;12.50;;;;;;;-1.23;81.44;97308.81;108026;1277;22556;-73
2022/04/02 05:27:35;;;;;;;20.90;13.00;;;;;;;-1.26;81.26;97315.58;108137;1277;25279;-70
2022/04/02 05:30:03;;;;;;;23.70;14.70;;;;;;;-1.25;81.17;97315.39;108031;1277;25541;-73
2022/04/02 05:32:30;;;;;;;29.10;16.30;;;;;;;-1.21;81.24;97318.50;108059;1277;25402;-70
2022/04/02 05:34:58;;;;;;;22.30;12.20;;;;;;;-1.19;81.50;97319.06;108025;1277;22589;-72
2022/04/02 05:37:25;;;;;;;23.80;13.50;;;;;;;-1.14;81.76;97324.52;108004;1277;22781;-71
2022/04/02 05:39:52;;;;;;;23.10;12.50;;;;;;;-1.13;81.96;97322.42;107990;1277;24231;-71
2022/04/02 05:42:21;;;;;;;22.20;12.00;;;;;;;-1.09;81.96;97316.84;108020;1277;23236;-76
2022/04/02 05:44:49;;;;;;;22.50;12.90;;;;;;;-1.06;81.72;97315.35;108033;1277;25380;-71
2022/04/02 05:47:16;;;;;;;23.50;12.10;;;;;;;-1.04;81.32;97316.12;108056;1277;22585;-70
2022/04/02 05:49:47;;;;;;;24.40;12.10;;;;;;;-1.03;81.14;97320.17;108026;1277;23616;-72
2022/04/02 05:52:15;;;;;;;21.40;12.60;;;;;;;-1.01;80.86;97318.89;107992;1277;24287;-77
2022/04/02 05:54:42;;;;;;;34.70;15.30;;;;;;;-0.98;80.96;97320.97;108059;1278;22634;-71
2022/04/02 05:57:10;;;;;;;24.50;13.90;;;;;;;-0.94;81.14;97322.90;108086;1278;22561;-71
2022/04/02 05:59:39;;;;;;;25.80;12.80;;;;;;;-0.93;81.55;97323.52;108035;1277;22571;-71
2022/04/02 06:02:10;;;;;;;22.30;11.60;;;;;;;-0.96;81.53;97328.95;108030;1278;22531;-71
2022/04/02 06:04:37;;;;;;;22.50;12.80;;;;;;;-0.96;81.34;97331.14;107969;1278;22549;-71
2022/04/02 06:07:05;;;;;;;21.20;11.60;;;;;;;-0.97;80.98;97330.84;108031;1277;22572;-73
2022/04/02 06:09:32;;;;;;;16.80;10.30;;;;;;;-0.97;80.76;97332.22;108048;1277;22540;-72
2022/04/02 06:11:59;;;;;;;18.80;11.10;;;;;;;-1.03;80.65;97334.17;108007;1277;22598;-75
2022/04/02 06:14:26;;;;;;;21.30;11.90;;;;;;;-1.04;80.63;97338.13;107979;1278;25370;-72
2022/04/02 06:16:53;;;;;;;19.40;10.50;;;;;;;-1.00;80.76;97334.22;108122;1277;23495;-74
2022/04/02 06:19:21;;;;;;;22.30;13.10;;;;;;;-0.98;80.90;97340.30;108067;1277;22589;-80
2022/04/02 06:21:48;;;;;;;23.30;14.60;;;;;;;-0.97;81.38;97343.32;108035;1277;22622;-76
2022/04/02 06:24:15;;;;;;;24.40;13.30;;;;;;;-0.99;81.54;97347.52;108013;1277;22557;-72
2022/04/02 06:26:42;;;;;;;24.60;15.10;;;;;;;-1.01;81.46;97342.48;107996;1277;22820;-72
2022/04/02 06:29:09;;;;;;;20.70;13.30;;;;;;;-1.01;81.31;97347.27;108032;1277;22558;-79
2022/04/02 06:31:36;;;;;;;20.60;12.40;;;;;;;-0.95;80.87;97347.52;108026;1277;25359;-78
2022/04/02 06:34:04;;;;;;;23.80;15.00;;;;;;;-1.00;80.73;97349.09;108026;1277;22578;-72
2022/04/02 06:36:31;;;;;;;16.30;10.10;;;;;;;-1.01;80.54;97347.09;108055;1277;22565;-71
2022/04/02 06:38:58;;;;;;;25.80;15.30;;;;;;;-1.03;80.50;97348.18;108049;1278;22605;-72
2022/04/02 06:41:25;;;;;;;24.40;16.10;;;;;;;-1.03;80.79;97351.94;108042;1277;22673;-72
2022/04/02 06:43:52;;;;;;;25.10;15.70;;;;;;;-0.97;81.18;97353.39;108059;1278;23323;-72
2022/04/02 06:46:20;;;;;;;20.80;13.00;;;;;;;-0.93;81.44;97354.98;108033;1278;23964;-75
2022/04/02 06:48:47;;;;;;;23.00;15.30;;;;;;;-0.95;81.13;97354.87;108063;1277;24374;-72
2022/04/02 06:51:15;;;;;;;20.30;12.70;;;;;;;-0.93;81.05;97357.54;108027;1278;24206;-78
2022/04/02 06:53:42;;;;;;;19.30;12.20;;;;;;;-0.91;80.62;97356.08;108055;1278;22573;-73
2022/04/02 06:56:27;;;;;;;22.50;14.20;;;;;;;-0.89;80.23;97356.37;108012;1277;23558;-72
2022/04/02 06:59:11;;;;;;;19.10;13.20;;;;;;;-0.88;80.11;97361.09;108019;1279;22626;-74
2022/04/02 07:01:55;;;;;;;24.50;15.00;;;;;;;-0.88;79.90;97364.84;108112;1278;22548;-74
2022/04/02 07:04:23;;;;;;;25.80;15.80;;;;;;;-0.91;80.17;97368.05;107993;1277;22581;-71
2022/04/02 07:06:51;;;;;;;23.50;13.90;;;;;;;-0.89;80.45;97366.60;108073;1278;22928;-70
2022/04/02 07:09:18;;;;;;;20.00;12.50;;;;;;;-0.92;80.62;97369.48;108040;1277;22590;-71
2022/04/02 07:11:45;;;;;;;17.50;11.00;;;;;;;-0.94;80.64;97372.61;108036;1277;24329;-70
2022/04/02 07:14:13;;;;;;;22.80;13.60;;;;;;;-1.01;80.24;97379.05;108048;1277;24259;-70
2022/04/02 07:16:41;;;;;;;22.50;13.50;;;;;;;-1.05;80.11;97378.18;108032;1277;25444;-75
2022/04/02 07:19:09;;;;;;;19.30;11.80;;;;;;;-1.02;79.87;97379.59;108057;1279;22734;-79
2022/04/02 07:21:37;;;;;;;32.70;16.50;;;;;;;-1.00;79.62;97383.80;108075;1278;22603;-72
2022/04/02 07:24:06;;;;;;;21.30;11.50;;;;;;;-0.98;80.17;97383.70;108049;1278;22553;-71
2022/04/02 07:26:33;;;;;;;18.90;10.00;;;;;;;-0.92;80.03;97387.38;108042;1277;22570;-72
2022/04/02 07:29:00;;;;;;;24.60;15.00;;;;;;;-0.97;79.91;97388.98;108015;1277;22550;-74
2022/04/02 07:31:27;;;;;;;26.20;15.60;;;;;;;-1.00;80.03;97392.68;108061;1277;22624;-74
2022/04/02 07:33:55;;;;;;;27.40;14.70;;;;;;;-1.01;79.87;97392.91;108032;1278;22585;-72
2022/04/02 07:36:44;;;;;;;26.20;14.70;;;;;;;-0.99;79.59;97395.38;108000;1277;22565;-71
2022/04/02 07:39:26;;;;;;;24.50;15.20;;;;;;;-1.02;79.66;97396.51;108024;1278;25246;-71
2022/04/02 07:42:04;;;;;;;19.90;12.60;;;;;;;-1.00;79.49;97401.56;108042;1279;22784;-72
2022/04/02 07:44:44;;;;;;;28.30;16.10;;;;;;;-0.96;79.15;97401.42;108028;1279;22560;-72
2022/04/02 07:47:15;;;;;;;24.90;15.30;;;;;;;-0.91;79.22;97403.44;108017;1278;22591;-74
2022/04/02 07:49:46;;;;;;;24.70;15.70;;;;;;;-0.90;79.33;97405.29;108347;1278;22593;-74
2022/04/02 07:52:14;;;;;;;22.60;13.80;;;;;;;-0.93;79.68;97405.38;108016;1279;22623;-72
2022/04/02 07:54:43;;;;;;;25.70;14.40;;;;;;;-0.94;79.58;97408.15;108043;1279;25322;-72
2022/04/02 07:57:38;;;;;;;24.60;15.00;;;;;;;-0.96;79.36;97406.17;108081;1277;22763;-71
2022/04/02 08:00:12;;;;;;;24.30;14.30;;;;;;;-0.96;79.05;97410.14;108054;1277;22562;-70
2022/04/02 08:02:46;;;;;;;21.80;12.70;;;;;;;-0.96;79.00;97411.64;108026;1278;23304;-77
2022/04/02 08:05:18;;;;;;;25.80;14.10;;;;;;;-0.95;78.98;97409.21;107988;1279;25246;-75
2022/04/02 08:07:50;;;;;;;25.20;16.10;;;;;;;-0.87;79.30;97409.24;108050;1278;23029;-73
2022/04/02 08:10:23;;;;;;;53.00;27.30;;;;;;;-0.85;79.55;97414.95;108041;1279;25323;-75
2022/04/02 08:12:55;;;;;;;32.10;15.90;;;;;;;-0.83;79.29;97412.00;107990;1278;23313;-72
2022/04/02 08:15:26;;;;;;;170.30;45.20;;;;;;;-0.87;79.00;97415.39;107979;1278;22554;-73
2022/04/02 08:17:56;;;;;;;71.70;25.40;;;;;;;-0.81;79.17;97414.67;108015;1277;22808;-71
2022/04/02 08:20:26;;;;;;;62.10;22.40;;;;;;;-0.76;78.77;97415.15;108108;1278;25357;-70
2022/04/02 08:22:55;;;;;;;56.50;19.90;;;;;;;-0.77;78.75;97418.27;108034;1278;22580;-73
2022/04/02 08:25:24;;;;;;;25.10;12.50;;;;;;;-0.71;78.47;97424.38;108001;1278;25333;-75
2022/04/02 08:28:10;;;;;;;25.60;12.70;;;;;;;-0.68;78.66;97428.52;107995;1278;22713;-72
2022/04/02 08:30:48;;;;;;;16.10;10.30;;;;;;;-0.65;79.16;97428.39;108014;1277;25319;-71
2022/04/02 08:33:33;;;;;;;25.60;11.30;;;;;;;-0.63;79.36;97433.79;108032;1277;22529;-74
2022/04/02 08:36:21;;;;;;;20.10;10.20;;;;;;;-0.64;79.40;97435.52;108016;1278;22578;-72
2022/04/02 08:39:03;;;;;;;38.60;15.40;;;;;;;-0.62;79.01;97440.23;108230;1278;22535;-81
2022/04/02 08:41:48;;;;;;;18.50;10.90;;;;;;;-0.65;78.83;97443.44;108251;1278;22527;-72
2022/04/02 08:44:24;;;;;;;28.00;13.20;;;;;;;-0.62;78.52;97445.02;108238;1278;22578;-72
2022/04/02 08:47:00;;;;;;;24.70;11.40;;;;;;;-0.59;78.07;97441.33;108294;1278;22563;-72
2022/04/02 08:49:40;;;;;;;16.60;10.30;;;;;;;-0.56;77.95;97442.92;108287;1279;25281;-76
2022/04/02 08:52:19;;;;;;;64.10;21.80;;;;;;;-0.59;78.33;97450.71;108304;1278;22539;-71
2022/04/02 08:55:07;;;;;;;48.60;20.40;;;;;;;-0.52;78.72;97451.15;108244;1277;22652;-71
2022/04/02 08:58:03;;;;;;;72.10;26.50;;;;;;;-0.44;78.61;97452.36;108265;1277;22570;-80
2022/04/02 09:00:40;;;;;;;35.30;16.90;;;;;;;-0.37;77.96;97451.39;108267;1278;26498;-74
2022/04/02 09:03:25;;;;;;;29.10;14.60;;;;;;;-0.34;77.82;97456.23;108271;1278;22541;-72
2022/04/02 09:06:16;;;;;;;28.10;14.90;;;;;;;-0.32;77.73;97460.60;108312;1278;25294;-74
2022/04/02 09:09:07;;;;;;;21.20;11.30;;;;;;;-0.24;77.52;97464.53;108247;1277;22551;-75
2022/04/02 09:12:02;;;;;;;37.90;17.20;;;;;;;-0.22;77.21;97469.93;108268;1277;22534;-70
2022/04/02 09:14:44;;;;;;;50.90;23.50;;;;;;;-0.13;77.41;97470.94;108277;1277;25481;-71
2022/04/02 09:17:37;;;;;;;57.30;24.90;;;;;;;-0.12;76.94;97472.09;108294;1278;22599;-75
2022/04/02 09:20:25;;;;;;;66.40;28.00;;;;;;;-0.09;76.93;97470.42;108273;1277;22632;-71
2022/04/02 09:23:17;;;;;;;37.80;19.70;;;;;;;-0.03;76.87;97467.77;108267;1278;25411;-71
2022/04/02 09:26:09;;;;;;;30.00;16.70;;;;;;;0.01;76.50;97465.89;108256;1277;25443;-71
2022/04/02 09:28:55;;;;;;;30.70;16.40;;;;;;;-0.08;76.49;97468.68;108207;1278;22591;-71
2022/04/02 09:31:38;;;;;;;33.50;17.70;;;;;;;-0.17;76.91;97472.27;108279;1278;22537;-74
2022/04/02 09:34:40;;;;;;;23.70;13.10;;;;;;;-0.06;76.82;97475.23;108267;1279;22545;-71
2022/04/02 09:37:36;;;;;;;19.40;11.80;;;;;;;-0.05;76.30;97476.61;108295;1279;22534;-73
2022/04/02 09:40:06;;;;;;;27.60;14.60;;;;;;;-0.12;76.11;97478.23;107255;1285;22658;-72
2022/04/02 09:42:41;;;;;;;27.60;15.90;;;;;;;-0.18;76.17;97483.14;107222;1285;23378;-70
2022/04/02 09:45:21;;;;;;;29.40;16.20;;;;;;;-0.19;75.78;97487.60;107191;1285;22595;-70
2022/04/02 09:48:12;;;;;;;25.10;12.90;;;;;;;-0.18;75.80;97487.39;107208;1285;22561;-71
2022/04/02 09:50:42;;;;;;;32.00;18.60;;;;;;;-0.10;76.22;97489.47;107208;1285;22700;-72
2022/04/02 09:53:19;;;;;;;30.80;17.40;;;;;;;-0.03;76.55;97494.69;107227;1285;25518;-69
2022/04/02 09:56:10;;;;;;;30.40;17.40;;;;;;;-0.01;76.19;97494.91;107173;1285;25409;-69
2022/04/02 09:58:58;;;;;;;22.80;13.10;;;;;;;-0.06;75.50;97494.43;107245;1285;22645;-72
2022/04/02 10:01:37;;;;;;;33.60;16.60;;;;;;;-0.15;75.66;97493.60;107243;1285;22582;-70
2022/04/02 10:04:39;;;;;;;24.60;14.50;;;;;;;-0.13;75.36;97499.02;107298;1285;22642;-71
2022/04/02 10:07:44;;;;;;;32.70;17.40;;;;;;;-0.15;75.17;97497.86;107194;1285;23474;-73
2022/04/02 10:10:15;;;;;;;27.30;15.70;;;;;;;-0.13;75.25;97500.02;107122;1285;22553;-69
2022/04/02 10:12:47;;;;;;;56.80;31.20;;;;;;;-0.11;75.29;97499.95;107254;1285;22569;-70
2022/04/02 10:15:19;;;;;;;34.10;19.80;;;;;;;-0.07;75.43;97500.12;107214;1285;22566;-74
2022/04/02 10:17:52;;;;;;;27.00;16.90;;;;;;;-0.06;75.58;97499.06;107739;1279;25373;-70
2022/04/02 10:20:29;;;;;;;27.90;16.60;;;;;;;-0.07;75.44;97497.20;107999;1278;25793;-70
2022/04/02 10:23:15;;;;;;;41.50;22.60;;;;;;;-0.07;75.20;97498.57;108124;1278;22561;-74
2022/04/02 10:26:17;;;;;;;29.40;19.00;;;;;;;-0.13;75.18;97499.52;108033;1278;26540;-70
2022/04/02 10:28:58;;;;;;;30.90;18.00;;;;;;;-0.11;74.94;97498.59;108072;1278;25465;-74
2022/04/02 10:31:38;;;;;;;38.10;20.30;;;;;;;-0.24;75.01;97508.16;107986;1276;25478;-70
2022/04/02 10:34:12;;;;;;;94.40;38.40;;;;;;;-0.30;75.08;97511.00;107973;1279;22554;-71
2022/04/02 10:37:10;;;;;;;51.20;26.40;;;;;;;-0.33;75.23;97511.44;107992;1279;22528;-70
2022/04/02 10:40:05;;;;;;;23.20;14.10;;;;;;;-0.25;75.57;97517.80;107961;1279;22572;-72
2022/04/02 10:42:58;;;;;;;24.10;14.00;;;;;;;-0.30;76.09;97521.26;107986;1279;22553;-71
2022/04/02 10:45:29;;;;;;;19.70;12.20;;;;;;;-0.31;76.34;97520.96;108004;1279;24285;-72
2022/04/02 10:48:10;;;;;;;24.60;13.90;;;;;;;-0.40;76.05;97517.52;108252;1279;22603;-72
2022/04/02 10:50:42;;;;;;;24.70;15.10;;;;;;;-0.43;75.99;97515.59;108313;1277;25520;-75
2022/04/02 10:53:13;;;;;;;32.00;18.20;;;;;;;-0.43;75.96;97521.05;108024;1278;22691;-70
2022/04/02 10:55:46;;;;;;;30.70;15.00;;;;;;;-0.42;75.87;97520.33;108019;1278;24233;-71
2022/04/02 10:58:20;;;;;;;19.50;10.80;;;;;;;-0.40;75.75;97522.14;108049;1278;22576;-69
2022/04/02 11:00:55;;;;;;;30.20;15.20;;;;;;;-0.47;75.91;97529.27;108028;1279;22554;-75
2022/04/02 11:03:40;;;;;;;24.70;13.50;;;;;;;-0.52;76.08;97531.31;108064;1279;22653;-69
2022/04/02 11:06:09;;;;;;;28.00;17.40;;;;;;;-0.55;76.38;97532.15;108012;1278;22583;-69
2022/04/02 11:08:38;;;;;;;30.40;18.20;;;;;;;-0.54;76.63;97534.31;108013;1279;22563;-72
2022/04/02 11:11:27;;;;;;;22.40;14.20;;;;;;;-0.52;77.17;97535.63;107962;1279;22534;-70
2022/04/02 11:14:02;;;;;;;25.20;14.50;;;;;;;-0.54;77.10;97531.25;107976;1279;22626;-71
2022/04/02 11:16:41;;;;;;;24.80;14.40;;;;;;;-0.49;76.69;97535.51;107966;1279;22570;-73
2022/04/02 11:22:13;;;;;;;33.00;18.90;;;;;;;-0.51;76.29;97537.95;107993;1279;22775;-70
2022/04/02 11:24:56;;;;;;;34.80;20.40;;;;;;;-0.46;75.90;97542.58;107993;1279;22708;-70
2022/04/02 11:27:29;;;;;;;26.40;14.50;;;;;;;-0.44;75.93;97543.00;108017;1279;25445;-72
2022/04/02 11:30:07;;;;;;;;;;;;;;;-0.42;75.85;97545.46;108021;1279;23313;-71
2022/04/02 11:32:42;;;;;;;21.00;14.30;;;;;;;-0.48;76.24;97550.17;107995;1279;23369;-71
2022/04/02 11:35:17;;;;;;;26.00;16.10;;;;;;;-0.49;76.84;97551.77;108042;1278;24757;-71
2022/04/02 11:38:03;;;;;;;30.60;17.10;;;;;;;-0.52;77.29;97552.85;108043;1277;22535;-72
2022/04/02 11:40:38;;;;;;;24.20;15.20;;;;;;;-0.52;77.37;97553.55;108051;1278;22563;-70